sensor_id;sensor_type;location;lat;lon;timestamp;P1;durP1;ratioP1;P2;durP2;ratioP2
38111;SDS011;64011;56.312;44.048;2022-12-29T00:01:49;45.85;;;20.00;;
38111;SDS011;64011;56.312;44.048;2022-12-29T00:03:50;46.28;;;20.15;;
38111;SDS011;64011;56.312;44.048;2022-12-29T00:05:54;50.10;;;19.98;;
38111;SDS011;64011;56.312;44.048;2022-12-29T00:07:56;53.03;;;21.67;;
38111;SDS011;64011;56.312;44.048;2022-12-29T00:09:57;47.47;;;21.73;;
38111;SDS011;64011;56.312;44.048;2022-12-29T00:11:58;48.38;;;21.23;;
38111;SDS011;64011;56.312;44.048;2022-12-29T00:13:59;47.83;;;22.05;;
38111;SDS011;64011;56.312;44.048;2022-12-29T00:15:59;46.50;;;18.30;;
38111;SDS011;64011;56.312;44.048;2022-12-29T00:18:00;43.67;;;17.08;;
38111;SDS011;64011;56.312;44.048;2022-12-29T00:20:01;41.85;;;16.35;;
38111;SDS011;64011;56.312;44.048;2022-12-29T00:22:04;52.38;;;21.80;;
38111;SDS011;64011;56.312;44.048;2022-12-29T00:24:08;34.80;;;13.40;;
38111;SDS011;64011;56.312;44.048;2022-12-29T00:26:12;39.97;;;16.27;;
38111;SDS011;64011;56.312;44.048;2022-12-29T00:28:14;32.00;;;11.60;;
38111;SDS011;64011;56.312;44.048;2022-12-29T00:30:15;36.67;;;14.82;;
38111;SDS011;64011;56.312;44.048;2022-12-29T00:32:17;30.75;;;11.77;;
38111;SDS011;64011;56.312;44.048;2022-12-29T00:34:17;35.40;;;14.07;;
38111;SDS011;64011;56.312;44.048;2022-12-29T00:36:19;47.42;;;20.23;;
38111;SDS011;64011;56.312;44.048;2022-12-29T00:38:22;44.00;;;18.50;;
38111;SDS011;64011;56.312;44.048;2022-12-29T00:40:24;29.52;;;12.40;;
38111;SDS011;64011;56.312;44.048;2022-12-29T00:42:25;19.80;;;6.82;;
38111;SDS011;64011;56.312;44.048;2022-12-29T00:44:25;34.50;;;14.60;;
38111;SDS011;64011;56.312;44.048;2022-12-29T00:46:26;46.78;;;18.83;;
38111;SDS011;64011;56.312;44.048;2022-12-29T00:48:27;42.65;;;18.15;;
38111;SDS011;64011;56.312;44.048;2022-12-29T00:50:28;44.80;;;19.55;;
38111;SDS011;64011;56.312;44.048;2022-12-29T00:52:28;45.22;;;18.27;;
38111;SDS011;64011;56.312;44.048;2022-12-29T00:54:30;42.03;;;16.88;;
38111;SDS011;64011;56.312;44.048;2022-12-29T00:56:33;34.33;;;15.40;;
38111;SDS011;64011;56.312;44.048;2022-12-29T00:58:34;34.25;;;11.90;;
38111;SDS011;64011;56.312;44.048;2022-12-29T01:00:34;48.40;;;21.30;;
38111;SDS011;64011;56.312;44.048;2022-12-29T01:02:35;16.83;;;5.72;;
38111;SDS011;64011;56.312;44.048;2022-12-29T01:04:36;42.08;;;19.27;;
38111;SDS011;64011;56.312;44.048;2022-12-29T01:06:38;28.05;;;12.13;;
38111;SDS011;64011;56.312;44.048;2022-12-29T01:08:39;41.67;;;16.73;;
38111;SDS011;64011;56.312;44.048;2022-12-29T01:10:40;43.42;;;20.17;;
38111;SDS011;64011;56.312;44.048;2022-12-29T01:12:42;39.40;;;16.35;;
38111;SDS011;64011;56.312;44.048;2022-12-29T01:14:43;43.75;;;19.65;;
38111;SDS011;64011;56.312;44.048;2022-12-29T01:16:44;43.35;;;18.40;;
38111;SDS011;64011;56.312;44.048;2022-12-29T01:18:44;27.90;;;9.00;;
38111;SDS011;64011;56.312;44.048;2022-12-29T01:20:45;40.83;;;19.52;;
38111;SDS011;64011;56.312;44.048;2022-12-29T01:22:46;24.27;;;8.75;;
38111;SDS011;64011;56.312;44.048;2022-12-29T01:24:47;48.50;;;19.23;;
38111;SDS011;64011;56.312;44.048;2022-12-29T01:26:47;36.83;;;14.40;;
38111;SDS011;64011;56.312;44.048;2022-12-29T01:28:50;42.03;;;18.75;;
38111;SDS011;64011;56.312;44.048;2022-12-29T01:30:50;45.53;;;19.38;;
38111;SDS011;64011;56.312;44.048;2022-12-29T01:32:51;35.85;;;14.23;;
38111;SDS011;64011;56.312;44.048;2022-12-29T01:34:52;39.05;;;16.25;;
38111;SDS011;64011;56.312;44.048;2022-12-29T01:36:53;25.55;;;10.95;;
38111;SDS011;64011;56.312;44.048;2022-12-29T01:38:53;14.00;;;6.00;;
38111;SDS011;64011;56.312;44.048;2022-12-29T01:40:54;34.65;;;14.60;;
38111;SDS011;64011;56.312;44.048;2022-12-29T01:42:55;35.55;;;14.77;;
38111;SDS011;64011;56.312;44.048;2022-12-29T01:44:57;39.67;;;15.65;;
38111;SDS011;64011;56.312;44.048;2022-12-29T01:46:58;41.95;;;18.52;;
38111;SDS011;64011;56.312;44.048;2022-12-29T01:49:00;39.88;;;17.15;;
38111;SDS011;64011;56.312;44.048;2022-12-29T01:51:04;46.80;;;18.88;;
38111;SDS011;64011;56.312;44.048;2022-12-29T01:53:07;38.53;;;16.48;;
38111;SDS011;64011;56.312;44.048;2022-12-29T01:55:10;44.53;;;20.08;;
38111;SDS011;64011;56.312;44.048;2022-12-29T01:57:12;46.95;;;20.60;;
38111;SDS011;64011;56.312;44.048;2022-12-29T01:59:15;42.60;;;19.15;;
38111;SDS011;64011;56.312;44.048;2022-12-29T02:01:19;44.30;;;19.08;;
38111;SDS011;64011;56.312;44.048;2022-12-29T02:03:21;43.47;;;19.63;;
38111;SDS011;64011;56.312;44.048;2022-12-29T02:05:24;45.33;;;20.23;;
38111;SDS011;64011;56.312;44.048;2022-12-29T02:07:27;42.35;;;19.58;;
38111;SDS011;64011;56.312;44.048;2022-12-29T02:09:28;40.17;;;16.63;;
38111;SDS011;64011;56.312;44.048;2022-12-29T02:11:29;30.70;;;11.15;;
38111;SDS011;64011;56.312;44.048;2022-12-29T02:13:30;34.65;;;14.30;;
38111;SDS011;64011;56.312;44.048;2022-12-29T02:15:34;22.25;;;7.32;;
38111;SDS011;64011;56.312;44.048;2022-12-29T02:17:41;44.30;;;17.30;;
38111;SDS011;64011;56.312;44.048;2022-12-29T02:19:53;46.25;;;18.80;;
38111;SDS011;64011;56.312;44.048;2022-12-29T02:22:07;42.03;;;18.20;;
38111;SDS011;64011;56.312;44.048;2022-12-29T02:24:32;36.03;;;14.57;;
38111;SDS011;64011;56.312;44.048;2022-12-29T02:26:49;46.70;;;18.52;;
38111;SDS011;64011;56.312;44.048;2022-12-29T02:29:05;30.20;;;10.80;;
38111;SDS011;64011;56.312;44.048;2022-12-29T02:31:19;44.88;;;19.85;;
38111;SDS011;64011;56.312;44.048;2022-12-29T02:33:23;47.33;;;19.17;;
38111;SDS011;64011;56.312;44.048;2022-12-29T02:35:32;46.13;;;19.23;;
38111;SDS011;64011;56.312;44.048;2022-12-29T02:37:38;37.55;;;16.98;;
38111;SDS011;64011;56.312;44.048;2022-12-29T02:39:43;45.15;;;18.17;;
38111;SDS011;64011;56.312;44.048;2022-12-29T02:43:54;41.85;;;18.73;;
38111;SDS011;64011;56.312;44.048;2022-12-29T02:46:02;38.95;;;17.60;;
38111;SDS011;64011;56.312;44.048;2022-12-29T02:48:09;43.72;;;15.88;;
38111;SDS011;64011;56.312;44.048;2022-12-29T02:50:13;44.17;;;19.33;;
38111;SDS011;64011;56.312;44.048;2022-12-29T02:52:17;45.88;;;20.02;;
38111;SDS011;64011;56.312;44.048;2022-12-29T02:54:22;45.88;;;20.33;;
38111;SDS011;64011;56.312;44.048;2022-12-29T02:56:23;43.10;;;19.90;;
38111;SDS011;64011;56.312;44.048;2022-12-29T02:58:23;51.28;;;21.08;;
38111;SDS011;64011;56.312;44.048;2022-12-29T03:00:24;45.92;;;20.55;;
38111;SDS011;64011;56.312;44.048;2022-12-29T03:02:30;50.25;;;19.05;;
38111;SDS011;64011;56.312;44.048;2022-12-29T03:04:43;47.28;;;19.27;;
38111;SDS011;64011;56.312;44.048;2022-12-29T03:06:52;47.75;;;20.38;;
38111;SDS011;64011;56.312;44.048;2022-12-29T03:08:59;50.75;;;20.70;;
38111;SDS011;64011;56.312;44.048;2022-12-29T03:11:03;51.88;;;21.95;;
38111;SDS011;64011;56.312;44.048;2022-12-29T03:13:07;49.40;;;22.35;;
38111;SDS011;64011;56.312;44.048;2022-12-29T03:15:15;57.03;;;21.27;;
38111;SDS011;64011;56.312;44.048;2022-12-29T03:17:23;50.22;;;21.08;;
38111;SDS011;64011;56.312;44.048;2022-12-29T03:19:28;48.05;;;21.27;;
38111;SDS011;64011;56.312;44.048;2022-12-29T03:21:34;50.15;;;22.45;;
38111;SDS011;64011;56.312;44.048;2022-12-29T03:23:38;51.58;;;22.08;;
38111;SDS011;64011;56.312;44.048;2022-12-29T03:25:40;52.85;;;22.40;;
38111;SDS011;64011;56.312;44.048;2022-12-29T03:27:44;51.38;;;22.05;;
38111;SDS011;64011;56.312;44.048;2022-12-29T03:29:49;49.90;;;20.70;;
38111;SDS011;64011;56.312;44.048;2022-12-29T03:31:52;51.92;;;22.17;;
38111;SDS011;64011;56.312;44.048;2022-12-29T03:33:53;50.13;;;21.75;;
38111;SDS011;64011;56.312;44.048;2022-12-29T03:35:57;55.80;;;22.42;;
38111;SDS011;64011;56.312;44.048;2022-12-29T03:38:02;55.63;;;22.33;;
38111;SDS011;64011;56.312;44.048;2022-12-29T03:40:07;55.87;;;24.07;;
38111;SDS011;64011;56.312;44.048;2022-12-29T03:42:09;56.72;;;22.88;;
38111;SDS011;64011;56.312;44.048;2022-12-29T03:44:13;57.03;;;22.40;;
38111;SDS011;64011;56.312;44.048;2022-12-29T03:46:13;49.85;;;21.92;;
38111;SDS011;64011;56.312;44.048;2022-12-29T03:48:14;55.13;;;24.08;;
38111;SDS011;64011;56.312;44.048;2022-12-29T03:50:15;60.65;;;24.63;;
38111;SDS011;64011;56.312;44.048;2022-12-29T03:52:16;57.38;;;23.83;;
38111;SDS011;64011;56.312;44.048;2022-12-29T03:54:18;59.50;;;24.95;;
38111;SDS011;64011;56.312;44.048;2022-12-29T03:56:19;61.28;;;24.83;;
38111;SDS011;64011;56.312;44.048;2022-12-29T03:58:19;61.88;;;24.42;;
38111;SDS011;64011;56.312;44.048;2022-12-29T04:00:20;60.65;;;25.83;;
38111;SDS011;64011;56.312;44.048;2022-12-29T04:02:21;58.67;;;23.70;;
38111;SDS011;64011;56.312;44.048;2022-12-29T04:04:21;53.72;;;22.23;;
38111;SDS011;64011;56.312;44.048;2022-12-29T04:06:22;51.90;;;21.40;;
38111;SDS011;64011;56.312;44.048;2022-12-29T04:08:23;55.00;;;21.52;;
38111;SDS011;64011;56.312;44.048;2022-12-29T04:10:25;59.47;;;24.75;;
38111;SDS011;64011;56.312;44.048;2022-12-29T04:12:26;54.53;;;21.45;;
38111;SDS011;64011;56.312;44.048;2022-12-29T04:14:26;53.10;;;20.60;;
38111;SDS011;64011;56.312;44.048;2022-12-29T04:16:27;54.47;;;22.60;;
38111;SDS011;64011;56.312;44.048;2022-12-29T04:18:28;60.85;;;23.10;;
38111;SDS011;64011;56.312;44.048;2022-12-29T04:20:28;58.17;;;24.38;;
38111;SDS011;64011;56.312;44.048;2022-12-29T04:22:29;52.20;;;23.70;;
38111;SDS011;64011;56.312;44.048;2022-12-29T04:24:30;60.45;;;25.20;;
38111;SDS011;64011;56.312;44.048;2022-12-29T04:26:32;54.42;;;23.52;;
38111;SDS011;64011;56.312;44.048;2022-12-29T04:28:33;52.17;;;22.35;;
38111;SDS011;64011;56.312;44.048;2022-12-29T04:30:34;54.55;;;22.83;;
38111;SDS011;64011;56.312;44.048;2022-12-29T04:32:34;55.13;;;25.35;;
38111;SDS011;64011;56.312;44.048;2022-12-29T04:34:35;59.58;;;23.92;;
38111;SDS011;64011;56.312;44.048;2022-12-29T04:36:36;60.30;;;23.00;;
38111;SDS011;64011;56.312;44.048;2022-12-29T04:38:36;59.00;;;24.50;;
38111;SDS011;64011;56.312;44.048;2022-12-29T04:40:37;54.42;;;22.83;;
38111;SDS011;64011;56.312;44.048;2022-12-29T04:42:40;57.13;;;22.73;;
38111;SDS011;64011;56.312;44.048;2022-12-29T04:44:40;49.00;;;23.15;;
38111;SDS011;64011;56.312;44.048;2022-12-29T04:46:41;51.58;;;22.45;;
38111;SDS011;64011;56.312;44.048;2022-12-29T04:48:42;60.03;;;23.25;;
38111;SDS011;64011;56.312;44.048;2022-12-29T04:50:42;58.80;;;23.10;;
38111;SDS011;64011;56.312;44.048;2022-12-29T04:52:44;53.65;;;23.02;;
38111;SDS011;64011;56.312;44.048;2022-12-29T04:54:44;47.25;;;22.17;;
38111;SDS011;64011;56.312;44.048;2022-12-29T04:56:45;51.50;;;22.40;;
38111;SDS011;64011;56.312;44.048;2022-12-29T04:58:47;54.50;;;23.17;;
38111;SDS011;64011;56.312;44.048;2022-12-29T05:00:48;59.30;;;24.42;;
38111;SDS011;64011;56.312;44.048;2022-12-29T05:02:49;55.78;;;24.30;;
38111;SDS011;64011;56.312;44.048;2022-12-29T05:04:49;60.70;;;25.05;;
38111;SDS011;64011;56.312;44.048;2022-12-29T05:06:50;50.88;;;24.48;;
38111;SDS011;64011;56.312;44.048;2022-12-29T05:08:51;54.13;;;24.38;;
38111;SDS011;64011;56.312;44.048;2022-12-29T05:10:52;51.30;;;22.60;;
38111;SDS011;64011;56.312;44.048;2022-12-29T05:12:53;54.13;;;22.23;;
38111;SDS011;64011;56.312;44.048;2022-12-29T05:14:55;51.60;;;22.63;;
38111;SDS011;64011;56.312;44.048;2022-12-29T05:16:55;58.75;;;24.98;;
38111;SDS011;64011;56.312;44.048;2022-12-29T05:18:56;52.63;;;21.85;;
38111;SDS011;64011;56.312;44.048;2022-12-29T05:20:57;52.45;;;23.58;;
38111;SDS011;64011;56.312;44.048;2022-12-29T05:22:57;46.30;;;21.83;;
38111;SDS011;64011;56.312;44.048;2022-12-29T05:24:58;49.30;;;21.70;;
38111;SDS011;64011;56.312;44.048;2022-12-29T05:26:59;51.80;;;20.95;;
38111;SDS011;64011;56.312;44.048;2022-12-29T05:29:00;51.13;;;22.17;;
38111;SDS011;64011;56.312;44.048;2022-12-29T05:31:02;51.95;;;21.60;;
38111;SDS011;64011;56.312;44.048;2022-12-29T05:33:02;48.67;;;21.52;;
38111;SDS011;64011;56.312;44.048;2022-12-29T05:35:03;50.13;;;21.67;;
38111;SDS011;64011;56.312;44.048;2022-12-29T05:37:05;46.55;;;21.08;;
38111;SDS011;64011;56.312;44.048;2022-12-29T05:39:05;47.42;;;21.00;;
38111;SDS011;64011;56.312;44.048;2022-12-29T05:41:06;48.08;;;21.05;;
38111;SDS011;64011;56.312;44.048;2022-12-29T05:43:07;46.47;;;21.00;;
38111;SDS011;64011;56.312;44.048;2022-12-29T05:45:08;49.08;;;21.20;;
38111;SDS011;64011;56.312;44.048;2022-12-29T05:47:10;46.58;;;20.60;;
38111;SDS011;64011;56.312;44.048;2022-12-29T05:49:11;42.15;;;18.73;;
38111;SDS011;64011;56.312;44.048;2022-12-29T05:51:12;46.65;;;19.35;;
38111;SDS011;64011;56.312;44.048;2022-12-29T05:53:13;46.22;;;20.88;;
38111;SDS011;64011;56.312;44.048;2022-12-29T05:55:13;43.97;;;20.00;;
38111;SDS011;64011;56.312;44.048;2022-12-29T05:57:14;44.00;;;19.77;;
38111;SDS011;64011;56.312;44.048;2022-12-29T05:59:15;44.63;;;19.40;;
38111;SDS011;64011;56.312;44.048;2022-12-29T06:01:16;40.13;;;17.73;;
38111;SDS011;64011;56.312;44.048;2022-12-29T06:03:18;44.83;;;19.02;;
38111;SDS011;64011;56.312;44.048;2022-12-29T06:05:18;42.92;;;19.58;;
38111;SDS011;64011;56.312;44.048;2022-12-29T06:07:19;45.00;;;19.25;;
38111;SDS011;64011;56.312;44.048;2022-12-29T06:09:20;42.10;;;18.35;;
38111;SDS011;64011;56.312;44.048;2022-12-29T06:11:21;39.42;;;18.42;;
38111;SDS011;64011;56.312;44.048;2022-12-29T06:13:21;42.75;;;20.13;;
38111;SDS011;64011;56.312;44.048;2022-12-29T06:15:22;40.22;;;18.88;;
38111;SDS011;64011;56.312;44.048;2022-12-29T06:17:23;38.72;;;17.58;;
38111;SDS011;64011;56.312;44.048;2022-12-29T06:19:25;35.72;;;17.02;;
38111;SDS011;64011;56.312;44.048;2022-12-29T06:21:26;43.58;;;19.73;;
38111;SDS011;64011;56.312;44.048;2022-12-29T06:23:26;33.83;;;16.05;;
38111;SDS011;64011;56.312;44.048;2022-12-29T06:25:27;37.78;;;17.40;;
38111;SDS011;64011;56.312;44.048;2022-12-29T06:27:28;35.58;;;15.43;;
38111;SDS011;64011;56.312;44.048;2022-12-29T06:29:29;36.90;;;15.98;;
38111;SDS011;64011;56.312;44.048;2022-12-29T06:31:30;37.65;;;16.20;;
38111;SDS011;64011;56.312;44.048;2022-12-29T06:33:30;34.97;;;15.85;;
38111;SDS011;64011;56.312;44.048;2022-12-29T06:35:32;40.33;;;16.98;;
38111;SDS011;64011;56.312;44.048;2022-12-29T06:37:33;36.35;;;16.02;;
38111;SDS011;64011;56.312;44.048;2022-12-29T06:39:34;38.08;;;17.15;;
38111;SDS011;64011;56.312;44.048;2022-12-29T06:41:34;36.13;;;16.83;;
38111;SDS011;64011;56.312;44.048;2022-12-29T06:43:35;37.60;;;17.20;;
38111;SDS011;64011;56.312;44.048;2022-12-29T06:45:37;36.53;;;16.20;;
38111;SDS011;64011;56.312;44.048;2022-12-29T06:47:41;36.33;;;15.70;;
38111;SDS011;64011;56.312;44.048;2022-12-29T06:49:41;33.65;;;15.73;;
38111;SDS011;64011;56.312;44.048;2022-12-29T06:51:43;38.63;;;16.65;;
38111;SDS011;64011;56.312;44.048;2022-12-29T06:53:44;35.42;;;15.95;;
38111;SDS011;64011;56.312;44.048;2022-12-29T06:55:45;37.95;;;16.15;;
38111;SDS011;64011;56.312;44.048;2022-12-29T06:57:46;32.90;;;13.77;;
38111;SDS011;64011;56.312;44.048;2022-12-29T06:59:46;35.97;;;16.08;;
38111;SDS011;64011;56.312;44.048;2022-12-29T07:01:47;33.38;;;15.10;;
38111;SDS011;64011;56.312;44.048;2022-12-29T07:03:48;33.90;;;16.13;;
38111;SDS011;64011;56.312;44.048;2022-12-29T07:05:49;33.83;;;15.73;;
38111;SDS011;64011;56.312;44.048;2022-12-29T07:07:51;37.97;;;16.50;;
38111;SDS011;64011;56.312;44.048;2022-12-29T07:09:52;35.25;;;17.20;;
38111;SDS011;64011;56.312;44.048;2022-12-29T07:11:52;36.30;;;17.05;;
38111;SDS011;64011;56.312;44.048;2022-12-29T07:13:53;39.72;;;16.58;;
38111;SDS011;64011;56.312;44.048;2022-12-29T07:15:54;39.08;;;16.63;;
38111;SDS011;64011;56.312;44.048;2022-12-29T07:17:55;34.53;;;16.23;;
38111;SDS011;64011;56.312;44.048;2022-12-29T07:19:55;38.55;;;17.95;;
38111;SDS011;64011;56.312;44.048;2022-12-29T07:21:56;38.83;;;16.60;;
38111;SDS011;64011;56.312;44.048;2022-12-29T07:23:58;38.08;;;16.67;;
38111;SDS011;64011;56.312;44.048;2022-12-29T07:26:02;37.50;;;15.70;;
38111;SDS011;64011;56.312;44.048;2022-12-29T07:28:03;36.47;;;16.15;;
38111;SDS011;64011;56.312;44.048;2022-12-29T07:30:04;39.05;;;16.98;;
38111;SDS011;64011;56.312;44.048;2022-12-29T07:32:06;31.23;;;14.52;;
38111;SDS011;64011;56.312;44.048;2022-12-29T07:34:09;34.83;;;14.93;;
38111;SDS011;64011;56.312;44.048;2022-12-29T07:36:10;31.88;;;14.30;;
38111;SDS011;64011;56.312;44.048;2022-12-29T07:38:10;29.42;;;13.45;;
38111;SDS011;64011;56.312;44.048;2022-12-29T07:40:12;30.50;;;14.20;;
38111;SDS011;64011;56.312;44.048;2022-12-29T07:42:13;27.48;;;12.95;;
38111;SDS011;64011;56.312;44.048;2022-12-29T07:44:14;29.17;;;13.23;;
38111;SDS011;64011;56.312;44.048;2022-12-29T07:46:15;29.92;;;13.27;;
38111;SDS011;64011;56.312;44.048;2022-12-29T07:48:16;25.90;;;12.45;;
38111;SDS011;64011;56.312;44.048;2022-12-29T07:50:16;27.60;;;12.00;;
38111;SDS011;64011;56.312;44.048;2022-12-29T07:52:17;28.42;;;12.40;;
38111;SDS011;64011;56.312;44.048;2022-12-29T07:54:18;29.38;;;13.00;;
38111;SDS011;64011;56.312;44.048;2022-12-29T07:56:20;27.50;;;12.50;;
38111;SDS011;64011;56.312;44.048;2022-12-29T07:58:21;30.92;;;13.30;;
38111;SDS011;64011;56.312;44.048;2022-12-29T08:00:21;29.42;;;12.90;;
38111;SDS011;64011;56.312;44.048;2022-12-29T08:02:22;33.90;;;15.85;;
38111;SDS011;64011;56.312;44.048;2022-12-29T08:04:23;31.30;;;14.27;;
38111;SDS011;64011;56.312;44.048;2022-12-29T08:06:24;32.97;;;14.32;;
38111;SDS011;64011;56.312;44.048;2022-12-29T08:08:24;28.63;;;14.13;;
38111;SDS011;64011;56.312;44.048;2022-12-29T08:10:25;33.13;;;15.20;;
38111;SDS011;64011;56.312;44.048;2022-12-29T08:12:27;33.13;;;14.98;;
38111;SDS011;64011;56.312;44.048;2022-12-29T08:14:28;34.60;;;14.38;;
38111;SDS011;64011;56.312;44.048;2022-12-29T08:16:29;37.63;;;16.63;;
38111;SDS011;64011;56.312;44.048;2022-12-29T08:18:30;39.40;;;18.02;;
38111;SDS011;64011;56.312;44.048;2022-12-29T08:20:31;39.67;;;17.83;;
38111;SDS011;64011;56.312;44.048;2022-12-29T08:22:32;36.88;;;18.30;;
38111;SDS011;64011;56.312;44.048;2022-12-29T08:24:33;39.88;;;17.00;;
38111;SDS011;64011;56.312;44.048;2022-12-29T08:26:33;34.00;;;16.17;;
38111;SDS011;64011;56.312;44.048;2022-12-29T08:28:36;33.78;;;15.20;;
38111;SDS011;64011;56.312;44.048;2022-12-29T08:30:37;31.83;;;15.55;;
38111;SDS011;64011;56.312;44.048;2022-12-29T08:32:37;31.45;;;14.10;;
38111;SDS011;64011;56.312;44.048;2022-12-29T08:34:38;30.52;;;13.43;;
38111;SDS011;64011;56.312;44.048;2022-12-29T08:36:39;27.65;;;13.00;;
38111;SDS011;64011;56.312;44.048;2022-12-29T08:38:40;30.63;;;13.05;;
38111;SDS011;64011;56.312;44.048;2022-12-29T08:40:41;26.77;;;12.02;;
38111;SDS011;64011;56.312;44.048;2022-12-29T08:42:41;29.70;;;12.13;;
38111;SDS011;64011;56.312;44.048;2022-12-29T08:44:43;31.13;;;12.55;;
38111;SDS011;64011;56.312;44.048;2022-12-29T08:46:44;25.63;;;11.00;;
38111;SDS011;64011;56.312;44.048;2022-12-29T08:48:45;26.15;;;11.40;;
38111;SDS011;64011;56.312;44.048;2022-12-29T08:50:46;27.27;;;11.57;;
38111;SDS011;64011;56.312;44.048;2022-12-29T08:52:46;30.02;;;12.55;;
38111;SDS011;64011;56.312;44.048;2022-12-29T08:54:47;24.85;;;10.68;;
38111;SDS011;64011;56.312;44.048;2022-12-29T08:56:48;27.48;;;12.60;;
38111;SDS011;64011;56.312;44.048;2022-12-29T08:58:49;29.58;;;12.45;;
38111;SDS011;64011;56.312;44.048;2022-12-29T09:00:53;27.08;;;11.60;;
38111;SDS011;64011;56.312;44.048;2022-12-29T09:02:53;28.23;;;12.32;;
38111;SDS011;64011;56.312;44.048;2022-12-29T09:04:54;30.08;;;12.50;;
38111;SDS011;64011;56.312;44.048;2022-12-29T09:06:55;25.23;;;11.18;;
38111;SDS011;64011;56.312;44.048;2022-12-29T09:08:56;28.63;;;11.68;;
38111;SDS011;64011;56.312;44.048;2022-12-29T09:11:04;30.25;;;13.50;;
38111;SDS011;64011;56.312;44.048;2022-12-29T09:13:06;27.65;;;12.23;;
38111;SDS011;64011;56.312;44.048;2022-12-29T09:15:07;29.25;;;12.13;;
38111;SDS011;64011;56.312;44.048;2022-12-29T09:17:10;26.50;;;12.30;;
38111;SDS011;64011;56.312;44.048;2022-12-29T09:19:11;26.70;;;11.77;;
38111;SDS011;64011;56.312;44.048;2022-12-29T09:21:12;29.63;;;13.02;;
38111;SDS011;64011;56.312;44.048;2022-12-29T09:23:13;31.52;;;12.90;;
38111;SDS011;64011;56.312;44.048;2022-12-29T09:25:13;26.65;;;11.88;;
38111;SDS011;64011;56.312;44.048;2022-12-29T09:27:15;28.13;;;11.00;;
38111;SDS011;64011;56.312;44.048;2022-12-29T09:29:15;28.85;;;12.63;;
38111;SDS011;64011;56.312;44.048;2022-12-29T09:31:16;27.63;;;12.65;;
38111;SDS011;64011;56.312;44.048;2022-12-29T09:33:18;28.40;;;12.15;;
38111;SDS011;64011;56.312;44.048;2022-12-29T09:35:19;31.85;;;13.40;;
38111;SDS011;64011;56.312;44.048;2022-12-29T09:37:20;27.25;;;12.27;;
38111;SDS011;64011;56.312;44.048;2022-12-29T09:39:20;27.23;;;12.27;;
38111;SDS011;64011;56.312;44.048;2022-12-29T09:41:23;29.77;;;12.65;;
38111;SDS011;64011;56.312;44.048;2022-12-29T09:43:34;30.13;;;14.18;;
38111;SDS011;64011;56.312;44.048;2022-12-29T09:45:43;33.53;;;14.70;;
38111;SDS011;64011;56.312;44.048;2022-12-29T09:47:46;29.73;;;13.00;;
38111;SDS011;64011;56.312;44.048;2022-12-29T09:49:49;34.47;;;15.07;;
38111;SDS011;64011;56.312;44.048;2022-12-29T09:51:53;32.92;;;15.82;;
38111;SDS011;64011;56.312;44.048;2022-12-29T09:53:56;34.22;;;16.20;;
38111;SDS011;64011;56.312;44.048;2022-12-29T09:55:59;35.28;;;16.67;;
38111;SDS011;64011;56.312;44.048;2022-12-29T09:58:02;39.13;;;18.50;;
38111;SDS011;64011;56.312;44.048;2022-12-29T10:00:08;41.25;;;19.95;;
38111;SDS011;64011;56.312;44.048;2022-12-29T10:02:21;43.50;;;20.27;;
38111;SDS011;64011;56.312;44.048;2022-12-29T10:04:27;42.33;;;21.02;;
38111;SDS011;64011;56.312;44.048;2022-12-29T10:06:32;36.80;;;18.15;;
38111;SDS011;64011;56.312;44.048;2022-12-29T10:08:34;44.47;;;20.98;;
38111;SDS011;64011;56.312;44.048;2022-12-29T10:10:38;38.55;;;18.17;;
38111;SDS011;64011;56.312;44.048;2022-12-29T10:12:47;42.95;;;20.05;;
38111;SDS011;64011;56.312;44.048;2022-12-29T10:14:57;42.13;;;19.85;;
38111;SDS011;64011;56.312;44.048;2022-12-29T10:17:06;42.40;;;19.92;;
38111;SDS011;64011;56.312;44.048;2022-12-29T10:21:50;41.22;;;19.60;;
38111;SDS011;64011;56.312;44.048;2022-12-29T10:23:56;40.75;;;20.17;;
38111;SDS011;64011;56.312;44.048;2022-12-29T10:25:57;37.95;;;19.60;;
38111;SDS011;64011;56.312;44.048;2022-12-29T10:27:59;37.63;;;18.42;;
38111;SDS011;64011;56.312;44.048;2022-12-29T10:30:04;39.05;;;19.10;;
38111;SDS011;64011;56.312;44.048;2022-12-29T10:32:06;36.40;;;17.48;;
38111;SDS011;64011;56.312;44.048;2022-12-29T10:34:22;37.42;;;18.48;;
38111;SDS011;64011;56.312;44.048;2022-12-29T10:36:27;39.20;;;19.35;;
38111;SDS011;64011;56.312;44.048;2022-12-29T10:38:34;37.70;;;16.40;;
38111;SDS011;64011;56.312;44.048;2022-12-29T10:40:38;39.20;;;17.63;;
38111;SDS011;64011;56.312;44.048;2022-12-29T10:42:42;36.10;;;16.65;;
38111;SDS011;64011;56.312;44.048;2022-12-29T10:44:46;35.83;;;17.00;;
38111;SDS011;64011;56.312;44.048;2022-12-29T10:46:54;37.80;;;17.02;;
38111;SDS011;64011;56.312;44.048;2022-12-29T10:48:56;35.40;;;16.42;;
38111;SDS011;64011;56.312;44.048;2022-12-29T10:50:57;37.55;;;16.88;;
38111;SDS011;64011;56.312;44.048;2022-12-29T10:53:00;34.65;;;15.95;;
38111;SDS011;64011;56.312;44.048;2022-12-29T10:55:05;34.92;;;15.50;;
38111;SDS011;64011;56.312;44.048;2022-12-29T10:57:10;35.35;;;15.98;;
38111;SDS011;64011;56.312;44.048;2022-12-29T10:59:15;39.60;;;16.55;;
38111;SDS011;64011;56.312;44.048;2022-12-29T11:01:18;38.00;;;17.13;;
38111;SDS011;64011;56.312;44.048;2022-12-29T11:03:28;34.25;;;14.77;;
38111;SDS011;64011;56.312;44.048;2022-12-29T11:05:43;35.33;;;15.93;;
38111;SDS011;64011;56.312;44.048;2022-12-29T11:07:46;34.35;;;15.48;;
38111;SDS011;64011;56.312;44.048;2022-12-29T11:09:47;36.95;;;15.88;;
38111;SDS011;64011;56.312;44.048;2022-12-29T11:11:49;36.47;;;15.52;;
38111;SDS011;64011;56.312;44.048;2022-12-29T11:13:50;34.75;;;15.27;;
38111;SDS011;64011;56.312;44.048;2022-12-29T11:15:56;37.47;;;15.18;;
38111;SDS011;64011;56.312;44.048;2022-12-29T11:17:57;37.95;;;15.88;;
38111;SDS011;64011;56.312;44.048;2022-12-29T11:19:58;37.22;;;17.02;;
38111;SDS011;64011;56.312;44.048;2022-12-29T11:22:11;36.25;;;15.40;;
38111;SDS011;64011;56.312;44.048;2022-12-29T11:24:19;39.92;;;16.88;;
38111;SDS011;64011;56.312;44.048;2022-12-29T11:26:21;40.45;;;17.70;;
38111;SDS011;64011;56.312;44.048;2022-12-29T11:28:24;39.92;;;16.95;;
38111;SDS011;64011;56.312;44.048;2022-12-29T11:30:26;34.60;;;14.75;;
38111;SDS011;64011;56.312;44.048;2022-12-29T11:32:28;36.97;;;16.23;;
38111;SDS011;64011;56.312;44.048;2022-12-29T11:34:30;36.85;;;15.77;;
38111;SDS011;64011;56.312;44.048;2022-12-29T11:36:32;40.50;;;17.60;;
38111;SDS011;64011;56.312;44.048;2022-12-29T11:38:34;33.45;;;16.10;;
38111;SDS011;64011;56.312;44.048;2022-12-29T11:40:37;35.88;;;15.63;;
38111;SDS011;64011;56.312;44.048;2022-12-29T11:42:39;38.75;;;15.38;;
38111;SDS011;64011;56.312;44.048;2022-12-29T11:44:44;39.90;;;16.90;;
38111;SDS011;64011;56.312;44.048;2022-12-29T11:46:45;35.70;;;15.13;;
38111;SDS011;64011;56.312;44.048;2022-12-29T11:48:48;35.05;;;15.50;;
38111;SDS011;64011;56.312;44.048;2022-12-29T11:50:50;34.25;;;15.70;;